URRP 272100Z 22004MPS CAVOK 19/12 Q1006 R23/CLRD70 NOSIG RMK QFE746/0995
QNH:(hPa/inHg/mmHg)1006 / 29.71 / 755
QFE:(hPa/inHg/mmHg)996 / 29.40 / 747
Temperature19
Dew Point12
Visibility> 10000
WeatherCAVOK
Cloud Cover
Transition Altitude3500 ft.
Transition LevelFL60
SQUAWK